Aérodrome :
LOGIN :

S'inscrire | Disclaimer

   EN    FR    IT 

 










Légende :    VFR   VFR Marginal   IFR   IFR Intensif   IFR Très Intensif
Visi : 
Plafond : 
>= 8 km
>= 3000ft
5 à 8 km
1000 à 3000 ft
1500m à 5 km
500 à 1000 ft
800 à 1500m
200 à 500 ft
< 800m
< 200 ft
Symboles :   Orages  Brouillard  Fortes neiges  Fortes précipitations  Vent > 20 kt
SIGMETs :   Divers  Orages  Givrage  Turbulence  Onde Orograph.  Cendres Volcan.






- Altitude de l'aérodrome : 6 ft
- Code IATA : CFU


LGKR - Corfu Kerkyra

DERNIER METAR :
  • 151450Z 12005KT CAVOK 11/03 Q1009 NOSIG

METARs EXPIRÉS :
  • 151420Z 10004KT CAVOK 12/02 Q1009 NOSIG
  • 151350Z 10002KT CAVOK 12/02 Q1009 NOSIG
  • 151320Z 00000KT CAVOK 12/01 Q1009 NOSIG
  • 151250Z 00000KT CAVOK 13/02 Q1009 NOSIG
  • 151220Z 00000KT CAVOK 15/01 Q1010 NOSIG

TAF TAF LGKR
Valide du 15 à 12h jusqu'au 16 à 12h UTC


151100Z 1512/1612 VRB05KT 9999 FEW020 SCT080
PROB40
TEMPO 1518/1608 5000 RA FEW018TCU BKN025 BKN070
PROB30
TEMPO 1520/1606 3000 TSRA SCT015 FEW018CB BKN025 OVC070



MET'MAP, la Météo Aéronautique d'un coup d'oeil ! - Copyright ORBIFLY Décembre 2007 - Disclaimer

ORBIFLY MET'MAP TEAM :

Programmation & Développement : Alexandra Zaïnal
Sur une idée originale de : Baudouin d'Aumeries
Assistance à la programmation : Marc-Olivier Méhu
Soutien technique & logistique : Manuel Goepfert

Contact : metmap@orbifly.com




SOURCES & CREDITS :

   NOAA